| time (UTC) | temp F | wind direction | speed MPH | gust MPH | rain 1hr in | rain 24hr in | rain mn in | humidity % | barometer mb |
| 20260906100041 | 67 | 359 | 4.0 | 8.0 | 0.00 | 0.00 | 0.00 | 92 | 1020.8 |
| 20260906094538 | 67 | 359 | 3.0 | 6.0 | 0.00 | 0.00 | 0.00 | 92 | 1020.7 |
| 20260906093033 | 68 | 359 | 3.0 | 8.0 | 0.00 | 0.00 | 0.00 | 92 | 1020.7 |
| 20260906091531 | 68 | 359 | 5.0 | 8.0 | 0.00 | 0.00 | 0.00 | 91 | 1020.6 |
| 20260906090025 | 69 | 359 | 4.0 | 10.0 | 0.00 | 0.00 | 0.00 | 91 | 1020.7 |
| 20260906084525 | 69 | 359 | 6.0 | 10.0 | 0.00 | 0.00 | 0.00 | 91 | 1020.6 |
| 20260906083023 | 69 | 359 | 3.0 | 8.0 | 0.00 | 0.00 | 0.00 | 91 | 1020.6 |
| 20260906081529 | 69 | 359 | 3.0 | 9.0 | 0.00 | 0.00 | 0.00 | 91 | 1020.5 |
| 20260906080010 | 69 | 359 | 6.0 | 10.0 | 0.00 | 0.00 | 0.00 | 91 | 1020.5 |
| 20260906074505 | 70 | 72 | 3.0 | 9.0 | 0.00 | 0.00 | 0.00 | 91 | 1020.7 |
| 20260906073110 | 70 | 82 | 5.0 | 11.0 | 0.00 | 0.00 | 0.00 | 90 | 1020.6 |
| 20260906071610 | 70 | 106 | 5.0 | 10.0 | 0.00 | 0.00 | 0.00 | 90 | 1020.8 |
| 20260906070056 | 70 | 64 | 4.0 | 10.0 | 0.00 | 0.00 | 0.00 | 89 | 1021.0 |
| 20260906064552 | 71 | 73 | 4.0 | 10.0 | 0.00 | 0.00 | 0.00 | 89 | 1021.3 |
| 20260906063049 | 71 | 60 | 5.0 | 11.0 | 0.00 | 0.00 | 0.00 | 89 | 1021.0 |
| 20260906061545 | 71 | 50 | 8.0 | 12.0 | 0.00 | 0.00 | 0.00 | 89 | 1021.1 |
| 20260906060041 | 71 | 97 | 5.0 | 11.0 | 0.00 | 0.00 | 0.00 | 89 | 1020.8 |
| 20260906054538 | 71 | 88 | 4.0 | 10.0 | 0.00 | 0.00 | 0.00 | 89 | 1020.9 |
| 20260906053037 | 71 | 35 | 5.0 | 9.0 | 0.00 | 0.00 | 0.00 | 88 | 1020.9 |
| 20260906051533 | 72 | 68 | 5.0 | 8.0 | 0.00 | 0.00 | 0.00 | 88 | 1020.7 |
| 20260906050048 | 72 | 87 | 2.0 | 6.0 | 0.00 | 0.00 | 0.00 | 88 | 1020.6 |
| 20260906044522 | 72 | 50 | 5.0 | 8.0 | 0.00 | 0.00 | 0.00 | 88 | 1020.8 |
| 20260906043018 | 72 | 91 | 3.0 | 5.0 | 0.00 | 0.00 | 0.00 | 89 | 1020.8 |
| 20260906041516 | 72 | 4 | 1.0 | 3.0 | 0.00 | 0.00 | 0.00 | 88 | 1020.8 |
| 20260906040011 | 72 | 251 | 0.0 | 3.0 | 0.00 | 0.00 | 0.00 | 88 | 1020.6 |
| 20260906034506 | 72 | 37 | 5.0 | 10.0 | 0.00 | 0.00 | 0.00 | 89 | 1020.1 |
| 20260906033002 | 72 | 56 | 3.0 | 4.0 | 0.00 | 0.00 | 0.00 | 88 | 1020.3 |
| 20260906031603 | 73 | 10 | 3.0 | 4.0 | 0.00 | 0.00 | 0.00 | 87 | 1020.5 |
| 20260906030133 | 73 | 318 | 1.0 | 2.0 | 0.00 | 0.00 | 0.00 | 87 | 1020.4 |
| 20260906024554 | 73 | 26 | 1.0 | 2.0 | 0.00 | 0.00 | 0.00 | 88 | 1020.0 |
| 20260906023053 | 73 | 42 | 1.0 | 3.0 | 0.00 | 0.00 | 0.00 | 88 | 1019.7 |
| 20260906021606 | 73 | 39 | 2.0 | 4.0 | 0.00 | 0.00 | 0.00 | 87 | 1019.5 |
| 20260906020043 | 74 | 35 | 3.0 | 4.0 | 0.00 | 0.00 | 0.00 | 86 | 1019.6 |
| 20260906014538 | 74 | 39 | 2.0 | 6.0 | 0.00 | 0.00 | 0.00 | 85 | 1019.2 |
| 20260906013035 | 75 | 70 | 3.0 | 7.0 | 0.00 | 0.00 | 0.00 | 84 | 1018.8 |
| 20260906011533 | 75 | 99 | 2.0 | 6.0 | 0.00 | 0.00 | 0.00 | 84 | 1018.5 |
| 20260906010026 | 75 | 89 | 4.0 | 10.0 | 0.00 | 0.00 | 0.00 | 83 | 1018.5 |
| 20260906004524 | 76 | 65 | 6.0 | 14.0 | 0.00 | 0.00 | 0.00 | 83 | 1018.5 |
| 20260906003018 | 77 | 93 | 7.0 | 16.0 | 0.00 | 0.02 | 0.00 | 82 | 1018.3 |
| 20260906001514 | 78 | 88 | 9.0 | 14.0 | 0.00 | 0.02 | 0.00 | 81 | 1018.3 |
| 20260906000010 | 78 | 81 | 7.0 | 12.0 | 0.00 | 0.02 | 0.00 | 80 | 1018.3 |
| 20260905234504 | 79 | 40 | 5.0 | 9.0 | 0.00 | 0.02 | 0.00 | 79 | 1018.3 |
| 20260905233001 | 80 | 62 | 7.0 | 15.0 | 0.00 | 0.02 | 0.00 | 78 | 1018.1 |
| 20260905231602 | 80 | 83 | 9.0 | 13.0 | 0.00 | 0.02 | 0.00 | 78 | 1018.1 |
| 20260905230057 | 80 | 54 | 7.0 | 17.0 | 0.00 | 0.02 | 0.00 | 78 | 1018.1 |
| 20260905224553 | 80 | 53 | 7.0 | 15.0 | 0.00 | 0.02 | 0.00 | 79 | 1018.0 |
| 20260905223050 | 80 | 59 | 8.0 | 12.0 | 0.00 | 0.11 | 0.00 | 79 | 1018.1 |
| 20260905221544 | 79 | 46 | 8.0 | 12.0 | 0.00 | 0.11 | 0.00 | 81 | 1018.2 |
| 20260905220040 | 79 | 67 | 7.0 | 14.0 | 0.00 | 0.11 | 0.00 | 79 | 1018.2 |
| 20260905214533 | 79 | 43 | 8.0 | 13.0 | 0.00 | 0.11 | 0.00 | 80 | 1018.3 |
| 20260905213029 | 79 | 21 | 5.0 | 11.0 | 0.00 | 0.11 | 0.00 | 79 | 1018.6 |
| 20260905211525 | 80 | 85 | 6.0 | 13.0 | 0.00 | 0.11 | 0.00 | 78 | 1018.6 |
| 20260905210023 | 79 | 41 | 4.0 | 14.0 | 0.00 | 0.11 | 0.00 | 80 | 1018.6 |
| 20260905204517 | 79 | 48 | 7.0 | 12.0 | 0.00 | 0.11 | 0.00 | 81 | 1018.6 |
| 20260905203015 | 80 | 49 | 6.0 | 10.0 | 0.00 | 0.11 | 0.00 | 80 | 1018.7 |
| 20260905201508 | 80 | 30 | 5.0 | 13.0 | 0.00 | 0.11 | 0.00 | 81 | 1018.7 |
| 20260905200004 | 80 | 43 | 7.0 | 12.0 | 0.00 | 0.11 | 0.00 | 82 | 1018.5 |
| 20260905194604 | 81 | 42 | 8.0 | 12.0 | 0.00 | 0.11 | 0.00 | 80 | 1018.9 |
| 20260905193059 | 82 | 18 | 4.0 | 10.0 | 0.00 | 0.11 | 0.00 | 80 | 1019.1 |
| 20260905191603 | 82 | 52 | 6.0 | 11.0 | 0.00 | 0.11 | 0.00 | 79 | 1018.9 |
| 20260905190051 | 82 | 50 | 6.0 | 12.0 | 0.00 | 0.11 | 0.00 | 79 | 1019.1 |
| 20260905184602 | 83 | 52 | 5.0 | 11.0 | 0.00 | 0.11 | 0.00 | 79 | 1019.0 |
| 20260905183043 | 82 | 37 | 7.0 | 13.0 | 0.00 | 0.11 | 0.00 | 79 | 1018.9 |
| 20260905181539 | 83 | 43 | 6.0 | 12.0 | 0.00 | 0.11 | 0.00 | 79 | 1019.0 |
| 20260905180035 | 83 | 41 | 5.0 | 12.0 | 0.00 | 0.11 | 0.00 | 80 | 1018.9 |
| 20260905174539 | 83 | 29 | 6.0 | 11.0 | 0.00 | 0.11 | 0.00 | 80 | 1018.9 |
| 20260905173028 | 82 | 37 | 8.0 | 12.0 | 0.00 | 0.11 | 0.00 | 81 | 1019.0 |
| 20260905171523 | 82 | 47 | 6.0 | 12.0 | 0.00 | 0.11 | 0.00 | 81 | 1019.0 |
| 20260905170019 | 82 | 35 | 6.0 | 12.0 | 0.00 | 0.11 | 0.00 | 80 | 1019.0 |
| 20260905164515 | 82 | 34 | 7.0 | 14.0 | 0.00 | 0.11 | 0.00 | 81 | 1019.3 |
| 20260905163011 | 81 | 20 | 6.0 | 11.0 | 0.00 | 0.11 | 0.00 | 81 | 1019.4 |
| 20260905161508 | 81 | 14 | 5.0 | 12.0 | 0.00 | 0.11 | 0.00 | 81 | 1019.3 |
| 20260905160003 | 82 | 354 | 5.0 | 10.0 | 0.00 | 0.11 | 0.00 | 81 | 1019.2 |
| 20260905154605 | 82 | 53 | 3.0 | 9.0 | 0.00 | 0.11 | 0.00 | 82 | 1019.1 |
| 20260905153102 | 81 | 78 | 5.0 | 8.0 | 0.00 | 0.11 | 0.00 | 82 | 1019.1 |
| 20260905151557 | 81 | 29 | 3.0 | 8.0 | 0.00 | 0.11 | 0.00 | 82 | 1019.0 |
| 20260905150052 | 80 | 31 | 7.0 | 10.0 | 0.00 | 0.11 | 0.00 | 81 | 1018.8 |
| 20260905144552 | 81 | 60 | 2.0 | 5.0 | 0.00 | 0.11 | 0.00 | 80 | 1018.4 |
| 20260905143044 | 80 | 30 | 2.0 | 6.0 | 0.00 | 0.11 | 0.00 | 81 | 1018.3 |
| 20260905141602 | 79 | 39 | 3.0 | 6.0 | 0.00 | 0.11 | 0.00 | 83 | 1018.3 |
| 20260905140031 | 77 | 61 | 2.0 | 5.0 | 0.00 | 0.11 | 0.00 | 85 | 1018.2 |
| 20260905134527 | 76 | 354 | 2.0 | 5.0 | 0.00 | 0.11 | 0.00 | 88 | 1018.2 |
| 20260905133027 | 75 | 12 | 3.0 | 4.0 | 0.00 | 0.11 | 0.00 | 90 | 1017.9 |
| 20260905131525 | 73 | 4 | 1.0 | 4.0 | 0.00 | 0.11 | 0.00 | 92 | 1017.7 |
| 20260905130013 | 72 | 339 | 1.0 | 3.0 | 0.00 | 0.11 | 0.00 | 93 | 1017.5 |
| 20260905124508 | 71 | 359 | 0.0 | 2.0 | 0.00 | 0.11 | 0.00 | 94 | 1017.4 |
| 20260905123004 | 70 | 314 | 0.0 | 2.0 | 0.00 | 0.11 | 0.11 | 94 | 1017.4 |
| 20260905121604 | 69 | 314 | 0.0 | 3.0 | 0.00 | 0.11 | 0.11 | 94 | 1017.4 |
| 20260905120100 | 69 | 25 | 0.0 | 2.0 | 0.00 | 0.11 | 0.11 | 94 | 1017.3 |
| 20260905114626 | 68 | 359 | 2.0 | 3.0 | 0.00 | 0.11 | 0.11 | 94 | 1017.2 |
| 20260905113055 | 68 | 359 | 0.0 | 2.0 | 0.00 | 0.11 | 0.11 | 94 | 1017.1 |
| 20260905111552 | 68 | 359 | 1.0 | 3.0 | 0.00 | 0.11 | 0.11 | 93 | 1017.0 |
| 20260905110043 | 68 | 359 | 1.0 | 4.0 | 0.00 | 0.11 | 0.11 | 93 | 1017.0 |
| 20260905104538 | 69 | 359 | 2.0 | 5.0 | 0.00 | 0.11 | 0.11 | 93 | 1016.7 |
| 20260905103036 | 68 | 359 | 1.0 | 2.0 | 0.00 | 0.11 | 0.11 | 93 | 1016.3 |
| 20260905101530 | 69 | 359 | 1.0 | 2.0 | 0.00 | 0.11 | 0.11 | 93 | 1016.1 |